sensor_id;sensor_type;location;lat;lon;timestamp;P1;durP1;ratioP1;P2;durP2;ratioP2
50066;SDS011;35952;52.524;13.340;2023-09-19T00:02:00;4.17;;;3.23;;
50066;SDS011;35952;52.524;13.340;2023-09-19T00:04:26;5.63;;;3.33;;
50066;SDS011;35952;52.524;13.340;2023-09-19T00:06:54;5.10;;;3.40;;
50066;SDS011;35952;52.524;13.340;2023-09-19T00:09:19;3.57;;;3.10;;
50066;SDS011;35952;52.524;13.340;2023-09-19T00:11:45;4.73;;;3.43;;
50066;SDS011;35952;52.524;13.340;2023-09-19T00:14:12;7.57;;;5.43;;
50066;SDS011;35952;52.524;13.340;2023-09-19T00:16:39;7.30;;;4.90;;
50066;SDS011;35952;52.524;13.340;2023-09-19T00:19:06;5.03;;;3.30;;
50066;SDS011;35952;52.524;13.340;2023-09-19T00:21:32;3.53;;;3.23;;
50066;SDS011;35952;52.524;13.340;2023-09-19T00:23:57;3.33;;;2.90;;
50066;SDS011;35952;52.524;13.340;2023-09-19T00:26:23;5.20;;;2.73;;
50066;SDS011;35952;52.524;13.340;2023-09-19T00:28:51;6.83;;;3.80;;
50066;SDS011;35952;52.524;13.340;2023-09-19T00:31:17;4.83;;;3.10;;
50066;SDS011;35952;52.524;13.340;2023-09-19T00:33:43;3.93;;;3.27;;
50066;SDS011;35952;52.524;13.340;2023-09-19T00:36:08;3.77;;;3.37;;
50066;SDS011;35952;52.524;13.340;2023-09-19T00:38:34;3.70;;;2.57;;
50066;SDS011;35952;52.524;13.340;2023-09-19T00:40:59;4.77;;;3.30;;
50066;SDS011;35952;52.524;13.340;2023-09-19T00:43:25;3.80;;;2.70;;
50066;SDS011;35952;52.524;13.340;2023-09-19T00:45:53;4.20;;;3.10;;
50066;SDS011;35952;52.524;13.340;2023-09-19T00:48:20;3.10;;;2.80;;
50066;SDS011;35952;52.524;13.340;2023-09-19T00:50:46;12.03;;;3.77;;
50066;SDS011;35952;52.524;13.340;2023-09-19T00:53:15;5.00;;;2.70;;
50066;SDS011;35952;52.524;13.340;2023-09-19T00:55:43;3.83;;;3.43;;
50066;SDS011;35952;52.524;13.340;2023-09-19T00:58:10;4.23;;;3.20;;
50066;SDS011;35952;52.524;13.340;2023-09-19T01:00:36;3.73;;;3.20;;
50066;SDS011;35952;52.524;13.340;2023-09-19T01:03:03;4.20;;;3.10;;
50066;SDS011;35952;52.524;13.340;2023-09-19T01:05:31;3.10;;;2.80;;
50066;SDS011;35952;52.524;13.340;2023-09-19T01:07:58;3.10;;;2.80;;
50066;SDS011;35952;52.524;13.340;2023-09-19T01:10:23;5.07;;;3.60;;
50066;SDS011;35952;52.524;13.340;2023-09-19T01:15:49;3.13;;;2.83;;
50066;SDS011;35952;52.524;13.340;2023-09-19T01:21:36;4.87;;;3.37;;
50066;SDS011;35952;52.524;13.340;2023-09-19T01:24:46;3.27;;;2.97;;
50066;SDS011;35952;52.524;13.340;2023-09-19T01:30:24;5.33;;;3.17;;
50066;SDS011;35952;52.524;13.340;2023-09-19T01:32:56;6.20;;;3.47;;
50066;SDS011;35952;52.524;13.340;2023-09-19T01:35:24;3.30;;;2.60;;
50066;SDS011;35952;52.524;13.340;2023-09-19T01:37:49;3.03;;;2.60;;
50066;SDS011;35952;52.524;13.340;2023-09-19T01:40:16;3.47;;;3.00;;
50066;SDS011;35952;52.524;13.340;2023-09-19T01:42:45;3.50;;;2.77;;
50066;SDS011;35952;52.524;13.340;2023-09-19T01:48:19;3.00;;;2.80;;
50066;SDS011;35952;52.524;13.340;2023-09-19T01:51:05;4.33;;;3.10;;
50066;SDS011;35952;52.524;13.340;2023-09-19T01:53:51;3.77;;;2.77;;
50066;SDS011;35952;52.524;13.340;2023-09-19T01:56:37;6.40;;;4.20;;
50066;SDS011;35952;52.524;13.340;2023-09-19T01:59:11;3.70;;;3.30;;
50066;SDS011;35952;52.524;13.340;2023-09-19T02:01:40;4.17;;;2.93;;
50066;SDS011;35952;52.524;13.340;2023-09-19T02:04:09;2.87;;;2.67;;
50066;SDS011;35952;52.524;13.340;2023-09-19T02:06:35;4.67;;;2.80;;
50066;SDS011;35952;52.524;13.340;2023-09-19T02:09:05;4.47;;;3.30;;
50066;SDS011;35952;52.524;13.340;2023-09-19T02:11:31;3.77;;;3.47;;
50066;SDS011;35952;52.524;13.340;2023-09-19T02:13:56;4.70;;;2.80;;
50066;SDS011;35952;52.524;13.340;2023-09-19T02:16:22;4.90;;;3.20;;
50066;SDS011;35952;52.524;13.340;2023-09-19T02:18:48;4.43;;;3.87;;
50066;SDS011;35952;52.524;13.340;2023-09-19T02:21:14;3.37;;;2.80;;
50066;SDS011;35952;52.524;13.340;2023-09-19T02:23:40;4.53;;;2.47;;
50066;SDS011;35952;52.524;13.340;2023-09-19T02:26:06;5.07;;;3.33;;
50066;SDS011;35952;52.524;13.340;2023-09-19T02:28:31;4.67;;;3.60;;
50066;SDS011;35952;52.524;13.340;2023-09-19T02:30:59;3.93;;;2.87;;
50066;SDS011;35952;52.524;13.340;2023-09-19T02:33:25;3.83;;;3.13;;
50066;SDS011;35952;52.524;13.340;2023-09-19T02:35:54;3.03;;;2.73;;
50066;SDS011;35952;52.524;13.340;2023-09-19T02:38:23;2.90;;;2.70;;
50066;SDS011;35952;52.524;13.340;2023-09-19T02:40:54;3.00;;;2.70;;
50066;SDS011;35952;52.524;13.340;2023-09-19T02:43:22;3.40;;;3.17;;
50066;SDS011;35952;52.524;13.340;2023-09-19T02:45:48;5.20;;;4.53;;
50066;SDS011;35952;52.524;13.340;2023-09-19T02:48:18;3.53;;;2.47;;
50066;SDS011;35952;52.524;13.340;2023-09-19T02:50:44;3.83;;;2.67;;
50066;SDS011;35952;52.524;13.340;2023-09-19T02:53:10;9.40;;;3.17;;
50066;SDS011;35952;52.524;13.340;2023-09-19T02:55:38;8.07;;;3.10;;
50066;SDS011;35952;52.524;13.340;2023-09-19T02:58:05;3.63;;;3.07;;
50066;SDS011;35952;52.524;13.340;2023-09-19T03:00:39;4.43;;;3.27;;
50066;SDS011;35952;52.524;13.340;2023-09-19T03:03:07;5.23;;;2.90;;
50066;SDS011;35952;52.524;13.340;2023-09-19T03:05:33;5.90;;;3.07;;
50066;SDS011;35952;52.524;13.340;2023-09-19T03:07:59;3.70;;;2.97;;
50066;SDS011;35952;52.524;13.340;2023-09-19T03:10:28;3.63;;;2.77;;
50066;SDS011;35952;52.524;13.340;2023-09-19T03:12:54;3.03;;;2.30;;
50066;SDS011;35952;52.524;13.340;2023-09-19T03:15:20;3.10;;;2.80;;
50066;SDS011;35952;52.524;13.340;2023-09-19T03:17:47;7.43;;;2.30;;
50066;SDS011;35952;52.524;13.340;2023-09-19T03:20:13;7.83;;;2.50;;
50066;SDS011;35952;52.524;13.340;2023-09-19T03:22:42;3.30;;;2.47;;
50066;SDS011;35952;52.524;13.340;2023-09-19T03:25:08;3.30;;;2.40;;
50066;SDS011;35952;52.524;13.340;2023-09-19T03:27:34;2.43;;;1.90;;
50066;SDS011;35952;52.524;13.340;2023-09-19T03:30:00;2.60;;;1.87;;
50066;SDS011;35952;52.524;13.340;2023-09-19T03:32:25;3.30;;;2.77;;
50066;SDS011;35952;52.524;13.340;2023-09-19T03:34:51;2.67;;;2.43;;
50066;SDS011;35952;52.524;13.340;2023-09-19T03:37:17;2.33;;;2.23;;
50066;SDS011;35952;52.524;13.340;2023-09-19T03:39:43;3.30;;;2.27;;
50066;SDS011;35952;52.524;13.340;2023-09-19T03:42:08;2.20;;;2.00;;
50066;SDS011;35952;52.524;13.340;2023-09-19T03:44:34;2.20;;;1.93;;
50066;SDS011;35952;52.524;13.340;2023-09-19T03:47:00;3.30;;;2.30;;
50066;SDS011;35952;52.524;13.340;2023-09-19T03:49:25;4.00;;;2.40;;
50066;SDS011;35952;52.524;13.340;2023-09-19T03:51:51;2.63;;;2.43;;
50066;SDS011;35952;52.524;13.340;2023-09-19T03:54:16;2.87;;;2.20;;
50066;SDS011;35952;52.524;13.340;2023-09-19T03:56:44;2.77;;;2.30;;
50066;SDS011;35952;52.524;13.340;2023-09-19T03:59:10;4.93;;;2.37;;
50066;SDS011;35952;52.524;13.340;2023-09-19T04:01:37;2.53;;;2.33;;
50066;SDS011;35952;52.524;13.340;2023-09-19T04:04:03;2.27;;;2.10;;
50066;SDS011;35952;52.524;13.340;2023-09-19T04:06:34;3.07;;;2.10;;
50066;SDS011;35952;52.524;13.340;2023-09-19T04:09:01;7.70;;;4.63;;
50066;SDS011;35952;52.524;13.340;2023-09-19T04:11:28;3.80;;;2.93;;
50066;SDS011;35952;52.524;13.340;2023-09-19T04:13:54;2.67;;;2.47;;
50066;SDS011;35952;52.524;13.340;2023-09-19T04:16:19;2.80;;;2.13;;
50066;SDS011;35952;52.524;13.340;2023-09-19T04:18:45;4.93;;;2.37;;
50066;SDS011;35952;52.524;13.340;2023-09-19T04:21:11;3.30;;;2.40;;
50066;SDS011;35952;52.524;13.340;2023-09-19T04:23:36;8.60;;;2.60;;
50066;SDS011;35952;52.524;13.340;2023-09-19T04:26:02;3.80;;;2.20;;
50066;SDS011;35952;52.524;13.340;2023-09-19T04:28:29;3.40;;;3.07;;
50066;SDS011;35952;52.524;13.340;2023-09-19T04:30:56;3.20;;;2.30;;
50066;SDS011;35952;52.524;13.340;2023-09-19T04:33:21;2.60;;;2.40;;
50066;SDS011;35952;52.524;13.340;2023-09-19T04:35:48;3.63;;;2.93;;
50066;SDS011;35952;52.524;13.340;2023-09-19T04:38:15;2.03;;;1.90;;
50066;SDS011;35952;52.524;13.340;2023-09-19T04:40:41;2.30;;;2.13;;
50066;SDS011;35952;52.524;13.340;2023-09-19T04:43:07;3.20;;;2.30;;
50066;SDS011;35952;52.524;13.340;2023-09-19T04:45:32;4.30;;;2.93;;
50066;SDS011;35952;52.524;13.340;2023-09-19T04:47:58;3.30;;;2.63;;
50066;SDS011;35952;52.524;13.340;2023-09-19T04:50:23;3.37;;;3.07;;
50066;SDS011;35952;52.524;13.340;2023-09-19T04:52:52;4.37;;;2.47;;
50066;SDS011;35952;52.524;13.340;2023-09-19T04:55:18;5.00;;;2.40;;
50066;SDS011;35952;52.524;13.340;2023-09-19T04:57:47;3.70;;;2.20;;
50066;SDS011;35952;52.524;13.340;2023-09-19T05:00:18;4.17;;;2.57;;
50066;SDS011;35952;52.524;13.340;2023-09-19T05:02:51;2.60;;;2.40;;
50066;SDS011;35952;52.524;13.340;2023-09-19T05:05:19;3.40;;;2.27;;
50066;SDS011;35952;52.524;13.340;2023-09-19T05:07:45;8.70;;;3.00;;
50066;SDS011;35952;52.524;13.340;2023-09-19T05:10:11;2.73;;;2.53;;
50066;SDS011;35952;52.524;13.340;2023-09-19T05:12:37;3.60;;;2.20;;
50066;SDS011;35952;52.524;13.340;2023-09-19T05:15:03;4.30;;;2.27;;
50066;SDS011;35952;52.524;13.340;2023-09-19T05:17:31;4.90;;;4.00;;
50066;SDS011;35952;52.524;13.340;2023-09-19T05:19:57;4.00;;;3.70;;
50066;SDS011;35952;52.524;13.340;2023-09-19T05:22:23;4.30;;;3.67;;
50066;SDS011;35952;52.524;13.340;2023-09-19T05:24:51;4.23;;;2.80;;
50066;SDS011;35952;52.524;13.340;2023-09-19T05:27:18;3.50;;;2.40;;
50066;SDS011;35952;52.524;13.340;2023-09-19T05:29:44;3.93;;;2.80;;
50066;SDS011;35952;52.524;13.340;2023-09-19T05:32:09;3.53;;;3.00;;
50066;SDS011;35952;52.524;13.340;2023-09-19T05:34:35;6.73;;;4.80;;
50066;SDS011;35952;52.524;13.340;2023-09-19T05:37:01;6.13;;;3.50;;
50066;SDS011;35952;52.524;13.340;2023-09-19T05:39:27;3.83;;;3.30;;
50066;SDS011;35952;52.524;13.340;2023-09-19T05:41:53;4.10;;;3.70;;
50066;SDS011;35952;52.524;13.340;2023-09-19T05:44:18;7.30;;;4.17;;
50066;SDS011;35952;52.524;13.340;2023-09-19T05:46:44;2.87;;;2.63;;
50066;SDS011;35952;52.524;13.340;2023-09-19T05:49:11;6.73;;;2.83;;
50066;SDS011;35952;52.524;13.340;2023-09-19T05:51:36;5.30;;;3.07;;
50066;SDS011;35952;52.524;13.340;2023-09-19T05:54:02;3.17;;;2.90;;
50066;SDS011;35952;52.524;13.340;2023-09-19T05:56:29;6.70;;;4.80;;
50066;SDS011;35952;52.524;13.340;2023-09-19T05:58:55;5.93;;;4.27;;
50066;SDS011;35952;52.524;13.340;2023-09-19T06:01:21;8.17;;;6.40;;
50066;SDS011;35952;52.524;13.340;2023-09-19T06:03:47;5.73;;;4.07;;
50066;SDS011;35952;52.524;13.340;2023-09-19T06:06:13;4.50;;;4.10;;
50066;SDS011;35952;52.524;13.340;2023-09-19T06:08:38;5.73;;;3.40;;
50066;SDS011;35952;52.524;13.340;2023-09-19T06:11:04;2.80;;;2.50;;
50066;SDS011;35952;52.524;13.340;2023-09-19T06:13:34;4.17;;;3.20;;
50066;SDS011;35952;52.524;13.340;2023-09-19T06:15:59;6.27;;;5.67;;
50066;SDS011;35952;52.524;13.340;2023-09-19T06:18:30;4.43;;;3.70;;
50066;SDS011;35952;52.524;13.340;2023-09-19T06:21:01;6.53;;;2.57;;
50066;SDS011;35952;52.524;13.340;2023-09-19T06:23:32;4.83;;;2.57;;
50066;SDS011;35952;52.524;13.340;2023-09-19T06:25:59;4.77;;;3.10;;
50066;SDS011;35952;52.524;13.340;2023-09-19T06:28:24;3.23;;;2.93;;
50066;SDS011;35952;52.524;13.340;2023-09-19T06:30:52;5.00;;;3.70;;
50066;SDS011;35952;52.524;13.340;2023-09-19T06:33:19;3.37;;;3.03;;
50066;SDS011;35952;52.524;13.340;2023-09-19T06:35:46;3.37;;;3.03;;
50066;SDS011;35952;52.524;13.340;2023-09-19T06:38:12;3.80;;;3.13;;
50066;SDS011;35952;52.524;13.340;2023-09-19T06:40:40;5.67;;;3.07;;
50066;SDS011;35952;52.524;13.340;2023-09-19T06:43:07;7.10;;;3.50;;
50066;SDS011;35952;52.524;13.340;2023-09-19T06:45:37;3.87;;;3.50;;
50066;SDS011;35952;52.524;13.340;2023-09-19T06:48:02;3.83;;;3.20;;
50066;SDS011;35952;52.524;13.340;2023-09-19T06:50:29;3.50;;;2.50;;
50066;SDS011;35952;52.524;13.340;2023-09-19T06:52:58;5.23;;;3.40;;
50066;SDS011;35952;52.524;13.340;2023-09-19T06:55:24;6.80;;;3.70;;
50066;SDS011;35952;52.524;13.340;2023-09-19T06:57:53;4.07;;;3.50;;
50066;SDS011;35952;52.524;13.340;2023-09-19T07:00:22;4.43;;;3.50;;
50066;SDS011;35952;52.524;13.340;2023-09-19T07:02:55;8.53;;;3.60;;
50066;SDS011;35952;52.524;13.340;2023-09-19T07:05:26;6.30;;;3.73;;
50066;SDS011;35952;52.524;13.340;2023-09-19T07:07:52;6.87;;;3.50;;
50066;SDS011;35952;52.524;13.340;2023-09-19T07:10:19;4.70;;;3.40;;
50066;SDS011;35952;52.524;13.340;2023-09-19T07:12:52;4.83;;;3.87;;
50066;SDS011;35952;52.524;13.340;2023-09-19T07:15:29;8.93;;;4.00;;
50066;SDS011;35952;52.524;13.340;2023-09-19T07:17:58;4.30;;;3.83;;
50066;SDS011;35952;52.524;13.340;2023-09-19T07:20:25;4.70;;;3.70;;
50066;SDS011;35952;52.524;13.340;2023-09-19T07:22:52;7.60;;;3.80;;
50066;SDS011;35952;52.524;13.340;2023-09-19T07:25:19;6.10;;;3.30;;
50066;SDS011;35952;52.524;13.340;2023-09-19T07:27:45;4.53;;;3.50;;
50066;SDS011;35952;52.524;13.340;2023-09-19T07:30:11;4.23;;;3.80;;
50066;SDS011;35952;52.524;13.340;2023-09-19T07:32:37;5.63;;;4.40;;
50066;SDS011;35952;52.524;13.340;2023-09-19T07:35:03;7.37;;;3.80;;
50066;SDS011;35952;52.524;13.340;2023-09-19T07:37:30;6.30;;;4.67;;
50066;SDS011;35952;52.524;13.340;2023-09-19T07:39:58;6.57;;;4.90;;
50066;SDS011;35952;52.524;13.340;2023-09-19T07:42:36;5.10;;;3.60;;
50066;SDS011;35952;52.524;13.340;2023-09-19T07:45:04;6.00;;;4.03;;
50066;SDS011;35952;52.524;13.340;2023-09-19T07:47:30;7.20;;;4.30;;
50066;SDS011;35952;52.524;13.340;2023-09-19T07:49:57;7.17;;;3.77;;
50066;SDS011;35952;52.524;13.340;2023-09-19T07:52:24;15.63;;;4.50;;
50066;SDS011;35952;52.524;13.340;2023-09-19T07:54:49;4.90;;;4.20;;
50066;SDS011;35952;52.524;13.340;2023-09-19T07:57:15;3.83;;;3.53;;
50066;SDS011;35952;52.524;13.340;2023-09-19T07:59:41;6.50;;;3.87;;
50066;SDS011;35952;52.524;13.340;2023-09-19T08:02:07;4.07;;;3.77;;
50066;SDS011;35952;52.524;13.340;2023-09-19T08:04:34;5.27;;;3.60;;
50066;SDS011;35952;52.524;13.340;2023-09-19T08:07:00;3.83;;;3.43;;
50066;SDS011;35952;52.524;13.340;2023-09-19T08:09:28;4.90;;;3.60;;
50066;SDS011;35952;52.524;13.340;2023-09-19T08:11:58;3.60;;;3.40;;
50066;SDS011;35952;52.524;13.340;2023-09-19T08:14:29;4.07;;;3.67;;
50066;SDS011;35952;52.524;13.340;2023-09-19T08:16:57;4.17;;;3.77;;
50066;SDS011;35952;52.524;13.340;2023-09-19T08:19:24;4.67;;;3.33;;
50066;SDS011;35952;52.524;13.340;2023-09-19T08:21:53;5.27;;;4.20;;
50066;SDS011;35952;52.524;13.340;2023-09-19T08:24:23;3.37;;;3.07;;
50066;SDS011;35952;52.524;13.340;2023-09-19T08:26:52;9.50;;;3.90;;
50066;SDS011;35952;52.524;13.340;2023-09-19T08:29:19;5.13;;;4.37;;
50066;SDS011;35952;52.524;13.340;2023-09-19T08:31:45;9.87;;;4.23;;
50066;SDS011;35952;52.524;13.340;2023-09-19T08:34:12;4.50;;;3.80;;
50066;SDS011;35952;52.524;13.340;2023-09-19T08:36:38;4.50;;;3.70;;
50066;SDS011;35952;52.524;13.340;2023-09-19T08:39:04;8.70;;;3.73;;
50066;SDS011;35952;52.524;13.340;2023-09-19T08:41:29;5.53;;;3.87;;
50066;SDS011;35952;52.524;13.340;2023-09-19T08:43:58;5.10;;;3.67;;
50066;SDS011;35952;52.524;13.340;2023-09-19T08:46:26;12.40;;;4.57;;
50066;SDS011;35952;52.524;13.340;2023-09-19T08:49:06;6.30;;;3.80;;
50066;SDS011;35952;52.524;13.340;2023-09-19T08:51:42;5.90;;;4.30;;
50066;SDS011;35952;52.524;13.340;2023-09-19T08:54:12;7.07;;;4.30;;
50066;SDS011;35952;52.524;13.340;2023-09-19T08:56:47;7.53;;;4.10;;
50066;SDS011;35952;52.524;13.340;2023-09-19T08:59:14;4.67;;;4.17;;
50066;SDS011;35952;52.524;13.340;2023-09-19T09:01:40;4.23;;;3.93;;
50066;SDS011;35952;52.524;13.340;2023-09-19T09:04:10;7.23;;;4.60;;
50066;SDS011;35952;52.524;13.340;2023-09-19T09:06:38;7.73;;;4.50;;
50066;SDS011;35952;52.524;13.340;2023-09-19T09:09:04;7.07;;;4.57;;
50066;SDS011;35952;52.524;13.340;2023-09-19T09:11:30;6.83;;;4.20;;
50066;SDS011;35952;52.524;13.340;2023-09-19T09:13:58;6.17;;;4.23;;
50066;SDS011;35952;52.524;13.340;2023-09-19T09:16:23;5.27;;;4.57;;
50066;SDS011;35952;52.524;13.340;2023-09-19T09:18:51;5.83;;;4.33;;
50066;SDS011;35952;52.524;13.340;2023-09-19T09:21:19;6.53;;;4.13;;
50066;SDS011;35952;52.524;13.340;2023-09-19T09:23:46;8.20;;;3.90;;
50066;SDS011;35952;52.524;13.340;2023-09-19T09:26:13;5.30;;;4.30;;
50066;SDS011;35952;52.524;13.340;2023-09-19T09:28:45;4.97;;;4.57;;
50066;SDS011;35952;52.524;13.340;2023-09-19T09:31:21;5.00;;;4.10;;
50066;SDS011;35952;52.524;13.340;2023-09-19T09:33:54;7.17;;;4.20;;
50066;SDS011;35952;52.524;13.340;2023-09-19T09:36:33;7.07;;;4.20;;
50066;SDS011;35952;52.524;13.340;2023-09-19T09:39:01;5.87;;;4.33;;
50066;SDS011;35952;52.524;13.340;2023-09-19T09:41:41;6.57;;;4.80;;
50066;SDS011;35952;52.524;13.340;2023-09-19T09:44:14;9.57;;;4.77;;
50066;SDS011;35952;52.524;13.340;2023-09-19T09:46:43;6.53;;;4.37;;
50066;SDS011;35952;52.524;13.340;2023-09-19T09:49:15;5.80;;;4.23;;
50066;SDS011;35952;52.524;13.340;2023-09-19T09:51:58;7.23;;;4.47;;
50066;SDS011;35952;52.524;13.340;2023-09-19T09:54:25;10.27;;;4.03;;
50066;SDS011;35952;52.524;13.340;2023-09-19T09:56:58;8.33;;;4.57;;
50066;SDS011;35952;52.524;13.340;2023-09-19T09:59:48;5.10;;;3.83;;
50066;SDS011;35952;52.524;13.340;2023-09-19T10:02:36;7.40;;;4.30;;
50066;SDS011;35952;52.524;13.340;2023-09-19T10:08:11;11.23;;;4.57;;
50066;SDS011;35952;52.524;13.340;2023-09-19T10:10:38;9.00;;;4.03;;
50066;SDS011;35952;52.524;13.340;2023-09-19T10:13:11;4.30;;;3.50;;
50066;SDS011;35952;52.524;13.340;2023-09-19T10:15:42;4.60;;;3.93;;
50066;SDS011;35952;52.524;13.340;2023-09-19T10:18:16;5.30;;;3.70;;
50066;SDS011;35952;52.524;13.340;2023-09-19T10:20:45;6.23;;;3.70;;
50066;SDS011;35952;52.524;13.340;2023-09-19T10:23:13;5.57;;;3.40;;
50066;SDS011;35952;52.524;13.340;2023-09-19T10:25:45;6.10;;;3.80;;
50066;SDS011;35952;52.524;13.340;2023-09-19T10:28:12;5.90;;;4.17;;
50066;SDS011;35952;52.524;13.340;2023-09-19T10:30:46;6.57;;;3.77;;
50066;SDS011;35952;52.524;13.340;2023-09-19T10:33:14;5.93;;;3.60;;
50066;SDS011;35952;52.524;13.340;2023-09-19T10:35:48;11.77;;;5.23;;
50066;SDS011;35952;52.524;13.340;2023-09-19T10:38:19;6.03;;;4.37;;
50066;SDS011;35952;52.524;13.340;2023-09-19T10:40:49;5.53;;;3.67;;
50066;SDS011;35952;52.524;13.340;2023-09-19T10:43:17;9.83;;;3.80;;
50066;SDS011;35952;52.524;13.340;2023-09-19T10:45:45;5.00;;;3.87;;
50066;SDS011;35952;52.524;13.340;2023-09-19T10:48:14;5.67;;;3.90;;
50066;SDS011;35952;52.524;13.340;2023-09-19T10:53:52;5.60;;;4.10;;
50066;SDS011;35952;52.524;13.340;2023-09-19T10:56:32;4.03;;;3.00;;
50066;SDS011;35952;52.524;13.340;2023-09-19T10:59:09;9.27;;;3.63;;
50066;SDS011;35952;52.524;13.340;2023-09-19T11:15:01;5.40;;;3.50;;
50066;SDS011;35952;52.524;13.340;2023-09-19T11:23:16;3.70;;;3.23;;
50066;SDS011;35952;52.524;13.340;2023-09-19T11:25:43;5.73;;;3.63;;
50066;SDS011;35952;52.524;13.340;2023-09-19T11:30:45;8.93;;;3.80;;
50066;SDS011;35952;52.524;13.340;2023-09-19T11:33:15;9.57;;;4.60;;
50066;SDS011;35952;52.524;13.340;2023-09-19T11:43:46;7.60;;;3.13;;
50066;SDS011;35952;52.524;13.340;2023-09-19T11:46:12;5.67;;;3.27;;
50066;SDS011;35952;52.524;13.340;2023-09-19T11:48:41;4.20;;;2.97;;
50066;SDS011;35952;52.524;13.340;2023-09-19T11:51:12;5.03;;;2.93;;
50066;SDS011;35952;52.524;13.340;2023-09-19T11:53:48;6.37;;;2.60;;
50066;SDS011;35952;52.524;13.340;2023-09-19T11:56:18;9.57;;;3.20;;
50066;SDS011;35952;52.524;13.340;2023-09-19T11:58:46;6.50;;;3.20;;
50066;SDS011;35952;52.524;13.340;2023-09-19T12:01:14;4.30;;;3.43;;
50066;SDS011;35952;52.524;13.340;2023-09-19T12:03:46;5.40;;;2.97;;
50066;SDS011;35952;52.524;13.340;2023-09-19T12:06:17;11.23;;;3.43;;
50066;SDS011;35952;52.524;13.340;2023-09-19T12:08:43;5.73;;;2.80;;
50066;SDS011;35952;52.524;13.340;2023-09-19T12:11:15;3.70;;;2.63;;
50066;SDS011;35952;52.524;13.340;2023-09-19T12:13:42;5.10;;;3.10;;
50066;SDS011;35952;52.524;13.340;2023-09-19T12:16:16;3.50;;;3.00;;
50066;SDS011;35952;52.524;13.340;2023-09-19T12:18:43;6.00;;;3.27;;
50066;SDS011;35952;52.524;13.340;2023-09-19T12:24:04;8.23;;;3.23;;
50066;SDS011;35952;52.524;13.340;2023-09-19T12:26:30;5.80;;;3.10;;
50066;SDS011;35952;52.524;13.340;2023-09-19T12:29:03;6.73;;;2.90;;
50066;SDS011;35952;52.524;13.340;2023-09-19T12:31:30;5.77;;;2.40;;
50066;SDS011;35952;52.524;13.340;2023-09-19T12:34:01;7.50;;;2.57;;
50066;SDS011;35952;52.524;13.340;2023-09-19T12:36:26;3.80;;;2.20;;
50066;SDS011;35952;52.524;13.340;2023-09-19T12:38:55;6.70;;;2.33;;
50066;SDS011;35952;52.524;13.340;2023-09-19T12:41:23;6.40;;;3.00;;
50066;SDS011;35952;52.524;13.340;2023-09-19T12:43:50;8.20;;;2.57;;
50066;SDS011;35952;52.524;13.340;2023-09-19T12:46:19;5.80;;;2.73;;
50066;SDS011;35952;52.524;13.340;2023-09-19T12:48:50;3.97;;;2.77;;
50066;SDS011;35952;52.524;13.340;2023-09-19T12:51:47;2.87;;;2.00;;
50066;SDS011;35952;52.524;13.340;2023-09-19T12:54:13;5.30;;;1.90;;
50066;SDS011;35952;52.524;13.340;2023-09-19T12:56:43;6.70;;;2.23;;
50066;SDS011;35952;52.524;13.340;2023-09-19T12:59:13;3.70;;;2.50;;
50066;SDS011;35952;52.524;13.340;2023-09-19T13:01:39;6.77;;;2.53;;
50066;SDS011;35952;52.524;13.340;2023-09-19T13:04:12;7.30;;;2.70;;
50066;SDS011;35952;52.524;13.340;2023-09-19T13:06:38;4.50;;;2.20;;
50066;SDS011;35952;52.524;13.340;2023-09-19T13:09:08;4.70;;;2.20;;
50066;SDS011;35952;52.524;13.340;2023-09-19T13:11:35;12.53;;;3.17;;
50066;SDS011;35952;52.524;13.340;2023-09-19T13:14:15;3.63;;;2.67;;
50066;SDS011;35952;52.524;13.340;2023-09-19T13:17:08;7.10;;;3.13;;
50066;SDS011;35952;52.524;13.340;2023-09-19T13:19:48;4.90;;;2.73;;
50066;SDS011;35952;52.524;13.340;2023-09-19T13:25:04;8.17;;;3.33;;
50066;SDS011;35952;52.524;13.340;2023-09-19T13:27:38;6.47;;;2.50;;
50066;SDS011;35952;52.524;13.340;2023-09-19T13:30:05;5.93;;;2.33;;
50066;SDS011;35952;52.524;13.340;2023-09-19T13:32:31;5.00;;;2.93;;
50066;SDS011;35952;52.524;13.340;2023-09-19T13:34:58;6.43;;;4.73;;
50066;SDS011;35952;52.524;13.340;2023-09-19T13:37:24;6.33;;;5.60;;
50066;SDS011;35952;52.524;13.340;2023-09-19T13:39:51;4.40;;;2.50;;
50066;SDS011;35952;52.524;13.340;2023-09-19T13:42:17;4.80;;;2.90;;
50066;SDS011;35952;52.524;13.340;2023-09-19T13:44:43;4.20;;;2.70;;
50066;SDS011;35952;52.524;13.340;2023-09-19T13:47:09;2.60;;;2.30;;
50066;SDS011;35952;52.524;13.340;2023-09-19T13:49:35;4.53;;;3.00;;
50066;SDS011;35952;52.524;13.340;2023-09-19T13:52:01;4.23;;;2.93;;
50066;SDS011;35952;52.524;13.340;2023-09-19T13:54:30;4.63;;;2.63;;
50066;SDS011;35952;52.524;13.340;2023-09-19T13:56:55;5.30;;;2.80;;
50066;SDS011;35952;52.524;13.340;2023-09-19T13:59:21;6.03;;;2.50;;
50066;SDS011;35952;52.524;13.340;2023-09-19T14:01:49;4.00;;;2.13;;
50066;SDS011;35952;52.524;13.340;2023-09-19T14:04:15;6.20;;;2.10;;
50066;SDS011;35952;52.524;13.340;2023-09-19T14:06:42;3.07;;;2.63;;
50066;SDS011;35952;52.524;13.340;2023-09-19T14:09:08;6.80;;;2.73;;
50066;SDS011;35952;52.524;13.340;2023-09-19T14:11:35;4.13;;;3.33;;
50066;SDS011;35952;52.524;13.340;2023-09-19T14:14:00;3.73;;;2.53;;
50066;SDS011;35952;52.524;13.340;2023-09-19T14:16:26;5.87;;;1.80;;
50066;SDS011;35952;52.524;13.340;2023-09-19T14:18:55;2.50;;;2.30;;
50066;SDS011;35952;52.524;13.340;2023-09-19T14:21:20;4.40;;;2.53;;
50066;SDS011;35952;52.524;13.340;2023-09-19T14:23:46;3.80;;;2.10;;
50066;SDS011;35952;52.524;13.340;2023-09-19T14:26:11;7.10;;;2.30;;
50066;SDS011;35952;52.524;13.340;2023-09-19T14:28:37;3.47;;;2.77;;
50066;SDS011;35952;52.524;13.340;2023-09-19T14:31:10;4.40;;;2.50;;
50066;SDS011;35952;52.524;13.340;2023-09-19T14:33:36;4.07;;;2.30;;
50066;SDS011;35952;52.524;13.340;2023-09-19T14:36:06;3.13;;;2.33;;
50066;SDS011;35952;52.524;13.340;2023-09-19T14:38:34;4.43;;;2.37;;
50066;SDS011;35952;52.524;13.340;2023-09-19T14:41:04;6.30;;;4.63;;
50066;SDS011;35952;52.524;13.340;2023-09-19T14:43:30;4.93;;;2.63;;
50066;SDS011;35952;52.524;13.340;2023-09-19T14:45:57;7.83;;;2.20;;
50066;SDS011;35952;52.524;13.340;2023-09-19T14:48:35;4.50;;;3.03;;
50066;SDS011;35952;52.524;13.340;2023-09-19T14:51:07;6.37;;;2.93;;
50066;SDS011;35952;52.524;13.340;2023-09-19T14:53:36;5.10;;;3.13;;
50066;SDS011;35952;52.524;13.340;2023-09-19T14:56:06;3.50;;;2.73;;
50066;SDS011;35952;52.524;13.340;2023-09-19T14:58:33;5.23;;;2.80;;
50066;SDS011;35952;52.524;13.340;2023-09-19T15:01:03;3.63;;;2.97;;
50066;SDS011;35952;52.524;13.340;2023-09-19T15:03:32;3.80;;;2.87;;
50066;SDS011;35952;52.524;13.340;2023-09-19T15:06:00;5.73;;;2.60;;
50066;SDS011;35952;52.524;13.340;2023-09-19T15:08:26;6.43;;;3.83;;
50066;SDS011;35952;52.524;13.340;2023-09-19T15:10:52;5.00;;;3.27;;
50066;SDS011;35952;52.524;13.340;2023-09-19T15:13:18;7.50;;;4.50;;
50066;SDS011;35952;52.524;13.340;2023-09-19T15:15:45;5.17;;;2.87;;
50066;SDS011;35952;52.524;13.340;2023-09-19T15:18:13;7.20;;;2.70;;
50066;SDS011;35952;52.524;13.340;2023-09-19T15:20:43;3.00;;;2.30;;
50066;SDS011;35952;52.524;13.340;2023-09-19T15:23:09;4.67;;;3.30;;
50066;SDS011;35952;52.524;13.340;2023-09-19T15:25:35;4.13;;;3.00;;
50066;SDS011;35952;52.524;13.340;2023-09-19T15:28:00;5.30;;;2.47;;
50066;SDS011;35952;52.524;13.340;2023-09-19T15:30:32;4.90;;;3.10;;
50066;SDS011;35952;52.524;13.340;2023-09-19T15:33:02;4.07;;;2.50;;
50066;SDS011;35952;52.524;13.340;2023-09-19T15:35:27;3.60;;;2.40;;